Time;durP1;ratioP1;P1;durP2;ratioP2;P2;SDS_P1;SDS_P2;PMS_P1;PMS_P2;Temp;Humidity;BMP_temperature;BMP_pressure;BME280_temperature;BME280_humidity;BME280_pressure;Samples;Min_cycle;Max_cycle;Signal;HPM_P1;HPM_P2
2022/10/10 00:01:24;;;;;;;20.30;15.80;;;;;;;7.19;72.04;101428.59;108287;1283;21972;-83
2022/10/10 00:03:53;;;;;;;20.10;15.90;;;;;;;7.21;72.07;101425.47;108350;1283;23153;-83
2022/10/10 00:06:26;;;;;;;20.80;16.60;;;;;;;7.18;71.98;101420.64;108276;1283;21916;-83
2022/10/10 00:09:04;;;;;;;21.00;16.30;;;;;;;7.12;71.86;101415.13;108292;1283;21948;-83
2022/10/10 00:11:34;;;;;;;19.50;14.70;;;;;;;7.09;72.02;101407.88;108180;1282;23796;-83
2022/10/10 00:14:04;;;;;;;18.20;15.20;;;;;;;7.09;72.06;101401.48;108366;1282;22077;-82
2022/10/10 00:16:33;;;;;;;18.40;14.40;;;;;;;7.08;72.10;101398.02;108407;1275;23104;-82
2022/10/10 00:19:07;;;;;;;20.10;14.20;;;;;;;7.06;72.20;101399.08;108294;1282;22414;-83
2022/10/10 00:21:36;;;;;;;23.10;14.80;;;;;;;7.04;72.28;101398.22;108031;1286;22194;-83
2022/10/10 00:24:09;;;;;;;18.50;15.10;;;;;;;7.04;72.35;101395.28;108085;1286;21961;-83
2022/10/10 00:26:38;;;;;;;20.70;17.10;;;;;;;7.07;72.43;101394.05;108021;1286;22403;-83
2022/10/10 00:29:07;;;;;;;32.90;27.90;;;;;;;7.10;72.46;101388.32;108047;1286;23608;-83
2022/10/10 00:31:36;;;;;;;42.50;38.30;;;;;;;7.10;72.40;101381.91;107451;1289;21959;-84
2022/10/10 00:34:05;;;;;;;47.70;43.70;;;;;;;7.10;72.43;101379.13;107946;1288;21974;-84
2022/10/10 00:36:33;;;;;;;49.20;44.60;;;;;;;7.09;72.37;101378.45;107882;1289;21992;-84
2022/10/10 00:39:02;;;;;;;48.60;43.90;;;;;;;7.10;72.41;101370.66;107820;1286;23862;-85
2022/10/10 00:41:31;;;;;;;47.00;42.20;;;;;;;7.12;72.36;101373.23;108229;1286;21963;-84
2022/10/10 00:44:10;;;;;;;44.10;40.20;;;;;;;7.09;72.17;101375.33;108121;1286;22735;-84
2022/10/10 00:46:39;;;;;;;41.20;37.30;;;;;;;7.07;72.12;101372.77;108220;1285;22382;-84
2022/10/10 00:49:23;;;;;;;38.30;34.90;;;;;;;7.04;72.04;101366.03;108157;1280;23622;-84
2022/10/10 00:51:58;;;;;;;37.10;33.20;;;;;;;7.01;72.24;101360.16;108515;1280;21934;-82
2022/10/10 00:54:40;;;;;;;;;;;;;;;;;;;;;
2022/10/10 00:57:13;;;;;;;28.90;25.90;;;;;;;6.92;72.50;101360.91;108514;1280;21942;-84
2022/10/10 00:59:45;;;;;;;27.50;24.70;;;;;;;6.90;72.39;101358.50;108432;1280;23824;-83
2022/10/10 01:02:14;;;;;;;26.80;24.10;;;;;;;6.89;72.23;101355.40;108431;1278;21988;-82
2022/10/10 01:04:47;;;;;;;26.50;23.80;;;;;;;6.87;72.25;101352.46;108646;1279;21942;-82
2022/10/10 01:07:23;;;;;;;32.80;21.30;;;;;;;6.86;72.25;101355.06;108494;1278;22017;-82
2022/10/10 01:10:16;;;;;;;20.30;18.30;;;;;;;6.82;72.38;101348.88;108529;1280;21943;-81
2022/10/10 01:13:33;;;;;;;18.30;16.40;;;;;;;6.79;72.30;101347.49;108661;1279;23685;-81
2022/10/10 01:16:56;;;;;;;16.60;14.80;;;;;;;6.71;72.30;101347.90;108642;1280;22979;-81
2022/10/10 01:20:09;;;;;;;17.00;13.60;;;;;;;6.60;72.52;101343.46;108032;1284;23033;-82
2022/10/10 01:23:00;;;;;;;;;;;;;;;6.54;72.70;101336.41;108001;1286;21924;-81
2022/10/10 01:25:57;;;;;;;13.60;12.00;;;;;;;6.48;73.12;101335.58;108300;1284;23920;-81
2022/10/10 01:29:04;;;;;;;16.20;14.20;;;;;;;6.49;73.12;101333.84;107897;1289;21980;-82
2022/10/10 01:31:38;;;;;;;15.30;13.30;;;;;;;6.51;73.14;101333.30;107223;1294;22908;-82
2022/10/10 01:34:28;;;;;;;19.40;14.80;;;;;;;6.50;73.08;101333.65;106564;1301;21950;-82
2022/10/10 01:37:19;;;;;;;14.80;13.00;;;;;;;6.48;73.26;101335.05;106733;1299;22001;-83
2022/10/10 01:40:00;;;;;;;17.00;12.70;;;;;;;6.47;73.13;101338.16;106706;1301;22850;-82
2022/10/10 01:42:51;;;;;;;17.80;12.20;;;;;;;6.48;73.20;101338.51;106601;1301;21991;-82
2022/10/10 01:45:21;;;;;;;19.10;13.40;;;;;;;6.49;73.20;101337.98;106723;1301;22063;-82
2022/10/10 01:47:54;;;;;;;20.80;14.30;;;;;;;6.55;73.45;101340.20;106962;1295;23113;-82
2022/10/10 01:50:26;;;;;;;18.50;13.60;;;;;;;6.59;73.34;101331.36;107327;1291;23024;-82
2022/10/10 01:53:25;;;;;;;16.40;13.80;;;;;;;6.63;73.27;101327.54;107748;1286;23701;-82
2022/10/10 01:56:41;;;;;;;17.40;13.50;;;;;;;6.62;73.19;101324.42;108041;1286;23083;-82
2022/10/10 01:59:23;;;;;;;20.20;15.30;;;;;;;6.61;73.23;101319.06;107888;1286;23868;-82
2022/10/10 02:02:32;;;;;;;26.50;17.70;;;;;;;6.59;73.13;101313.20;108195;1286;24309;-82
2022/10/10 02:05:15;;;;;;;20.70;16.70;;;;;;;6.55;73.09;101310.45;107462;1292;23791;-82
2022/10/10 02:08:07;;;;;;;18.50;16.10;;;;;;;6.54;73.16;101310.29;107755;1286;21998;-82
2022/10/10 02:10:50;;;;;;;21.00;17.50;;;;;;;6.56;73.25;101309.06;107949;1286;22411;-83
2022/10/10 02:13:27;;;;;;;19.50;17.50;;;;;;;6.56;73.23;101305.43;108208;1286;22386;-82
2022/10/10 02:16:08;;;;;;;18.90;15.90;;;;;;;6.58;73.13;101302.13;107941;1286;22773;-82
2022/10/10 02:18:46;;;;;;;15.90;14.30;;;;;;;6.58;73.10;101299.19;107922;1284;21951;-82
2022/10/10 02:21:16;;;;;;;23.90;21.50;;;;;;;6.57;73.11;101296.61;107755;1286;23588;-82
2022/10/10 02:23:51;;;;;;;28.20;25.50;;;;;;;6.57;73.10;101293.14;108176;1286;21950;-82
2022/10/10 02:26:22;;;;;;;31.40;28.30;;;;;;;6.59;73.11;101292.09;107688;1289;21959;-83
2022/10/10 02:29:14;;;;;;;39.20;35.80;;;;;;;6.61;73.05;101289.83;107663;1289;21969;-82
2022/10/10 02:32:06;;;;;;;40.00;36.40;;;;;;;6.57;72.93;101295.39;107686;1289;22406;-82
2022/10/10 02:34:44;;;;;;;41.20;37.50;;;;;;;6.53;72.85;101296.28;107821;1289;23125;-83
2022/10/10 02:37:17;;;;;;;37.20;33.80;;;;;;;6.53;73.02;101292.82;107672;1289;21949;-80
2022/10/10 02:39:57;;;;;;;37.70;34.30;;;;;;;6.56;72.90;101296.79;107591;1287;22828;-80
2022/10/10 02:42:28;;;;;;;36.90;33.30;;;;;;;6.54;72.87;101297.67;107161;1289;23205;-80
2022/10/10 02:44:57;;;;;;;38.30;34.70;;;;;;;6.54;72.80;101293.16;107785;1286;22225;-80
2022/10/10 02:47:26;;;;;;;37.00;33.60;;;;;;;6.54;72.72;101293.86;107765;1286;24408;-80
2022/10/10 02:49:55;;;;;;;31.50;28.50;;;;;;;6.54;72.62;101293.69;107931;1286;22010;-81
2022/10/10 02:52:26;;;;;;;27.10;24.50;;;;;;;6.55;72.63;101294.36;107796;1286;22413;-81
2022/10/10 02:54:54;;;;;;;27.50;24.80;;;;;;;6.52;72.48;101290.59;108005;1286;22129;-81
2022/10/10 02:57:23;;;;;;;27.10;24.20;;;;;;;6.48;72.43;101289.75;107954;1286;21986;-81
2022/10/10 02:59:52;;;;;;;24.50;21.90;;;;;;;6.42;72.40;101285.63;108050;1281;23042;-81
2022/10/10 03:02:22;;;;;;;23.00;20.60;;;;;;;6.38;72.48;101287.36;108675;1273;21931;-81
2022/10/10 03:04:53;;;;;;;22.60;20.20;;;;;;;6.38;72.53;101285.11;108471;1280;21952;-81
2022/10/10 03:07:24;;;;;;;22.70;20.50;;;;;;;6.38;72.45;101284.27;108252;1280;21934;-82
2022/10/10 03:09:52;;;;;;;21.60;19.30;;;;;;;6.37;72.39;101289.11;108638;1280;22237;-82
2022/10/10 03:12:22;;;;;;;21.20;19.00;;;;;;;6.34;72.34;101282.73;108623;1279;24532;-82
2022/10/10 03:14:51;;;;;;;22.50;20.00;;;;;;;6.32;72.36;101280.50;108212;1283;21944;-83
2022/10/10 03:17:19;;;;;;;22.30;20.00;;;;;;;6.31;72.35;101278.43;107968;1286;21970;-82
2022/10/10 03:19:48;;;;;;;25.90;23.20;;;;;;;6.29;72.34;101274.81;107985;1284;21903;-82
2022/10/10 03:22:17;;;;;;;26.80;24.10;;;;;;;6.26;72.19;101269.80;107771;1289;21949;-81
2022/10/10 03:24:46;;;;;;;36.20;32.70;;;;;;;6.23;72.32;101260.49;107674;1289;23864;-82
2022/10/10 03:27:15;;;;;;;36.70;33.10;;;;;;;6.19;72.31;101258.80;107654;1289;21943;-82
2022/10/10 03:29:43;;;;;;;38.20;34.50;;;;;;;6.15;72.33;101257.25;107751;1288;21978;-82
2022/10/10 03:32:15;;;;;;;;;;;;;;;6.11;72.31;101252.77;107920;1286;21939;-83
2022/10/10 03:34:46;;;;;;;41.20;37.30;;;;;;;5.99;72.57;101247.82;108038;1283;22000;-82
2022/10/10 03:37:14;;;;;;;40.50;36.60;;;;;;;5.94;72.61;101240.73;108183;1286;21948;-82
2022/10/10 03:39:45;;;;;;;48.10;43.50;;;;;;;5.91;72.57;101240.75;108235;1278;21933;-82
2022/10/10 03:42:14;;;;;;;44.60;40.20;;;;;;;5.89;72.56;101243.33;108358;1269;21933;-82
2022/10/10 03:44:45;;;;;;;35.70;32.30;;;;;;;5.89;72.64;101242.83;108467;1279;23108;-82
2022/10/10 03:47:16;;;;;;;27.80;25.10;;;;;;;5.88;72.73;101237.81;108616;1280;23727;-82
2022/10/10 03:49:47;;;;;;;28.40;24.90;;;;;;;5.89;72.79;101236.59;108351;1280;22401;-82
2022/10/10 03:52:20;;;;;;;25.70;23.10;;;;;;;5.88;72.83;101232.81;108520;1280;21952;-84
2022/10/10 03:54:50;;;;;;;22.80;19.50;;;;;;;5.87;72.82;101231.43;108412;1280;24308;-85
2022/10/10 03:57:19;;;;;;;19.60;17.60;;;;;;;5.86;72.85;101232.98;108651;1280;21943;-86
2022/10/10 03:59:48;;;;;;;19.80;17.70;;;;;;;5.86;72.79;101231.80;108680;1280;21945;-82
2022/10/10 04:02:17;;;;;;;17.40;15.30;;;;;;;5.85;72.76;101230.92;108605;1280;24368;-82
2022/10/10 04:04:46;;;;;;;23.00;18.20;;;;;;;5.81;72.58;101229.73;108414;1281;22083;-83
2022/10/10 04:07:15;;;;;;;19.90;15.60;;;;;;;5.75;72.63;101225.27;108351;1280;22126;-82
2022/10/10 04:09:46;;;;;;;21.90;18.20;;;;;;;5.71;72.59;101222.68;108444;1275;21919;-82
2022/10/10 04:12:15;;;;;;;20.60;17.60;;;;;;;5.67;72.62;101219.94;108424;1280;21940;-82
2022/10/10 04:14:47;;;;;;;20.80;17.50;;;;;;;5.64;72.67;101211.66;108327;1280;23567;-82
2022/10/10 04:17:16;;;;;;;21.00;18.20;;;;;;;5.61;72.69;101204.25;108599;1280;23700;-82
2022/10/10 04:19:45;;;;;;;26.40;19.30;;;;;;;5.59;72.76;101200.80;108032;1286;23080;-82
2022/10/10 04:22:15;;;;;;;23.00;16.90;;;;;;;5.57;72.82;101204.77;108189;1286;21963;-81
2022/10/10 04:24:44;;;;;;;20.30;17.10;;;;;;;5.56;72.90;101199.95;108127;1284;21963;-81
2022/10/10 04:27:13;;;;;;;20.10;16.90;;;;;;;5.54;72.91;101191.84;108188;1284;24469;-82
2022/10/10 04:29:42;;;;;;;22.30;16.60;;;;;;;5.50;72.93;101189.95;108261;1285;21932;-81
2022/10/10 04:32:11;;;;;;;18.50;16.10;;;;;;;5.49;73.05;101186.84;108242;1286;22717;-82
2022/10/10 04:34:39;;;;;;;20.60;15.70;;;;;;;5.51;73.18;101185.11;107658;1292;22061;-81
2022/10/10 04:37:08;;;;;;;19.40;16.00;;;;;;;5.52;73.20;101182.87;107707;1285;21961;-82
2022/10/10 04:39:37;;;;;;;18.00;15.60;;;;;;;5.53;73.20;101178.71;107976;1286;21950;-80
2022/10/10 04:42:06;;;;;;;24.10;16.30;;;;;;;5.53;73.31;101172.51;107937;1286;21958;-80
2022/10/10 04:44:35;;;;;;;19.00;15.90;;;;;;;5.54;73.28;101173.02;107730;1286;21940;-80
2022/10/10 04:47:04;;;;;;;16.60;14.80;;;;;;;5.53;73.36;101173.02;107972;1286;23769;-79
2022/10/10 04:49:32;;;;;;;25.90;16.80;;;;;;;5.54;73.37;101169.57;107713;1286;22080;-80
2022/10/10 04:52:01;;;;;;;21.40;15.60;;;;;;;5.56;73.39;101169.21;107538;1283;22267;-80
2022/10/10 04:54:30;;;;;;;19.00;16.50;;;;;;;5.58;73.45;101164.71;108272;1280;21935;-80
2022/10/10 04:56:58;;;;;;;17.60;15.80;;;;;;;5.59;73.57;101167.13;108201;1280;23026;-81
2022/10/10 04:59:27;;;;;;;20.50;16.60;;;;;;;5.60;73.57;101164.53;108542;1280;21937;-82
2022/10/10 05:01:56;;;;;;;28.00;17.30;;;;;;;5.61;73.61;101162.80;108462;1277;21961;-82
2022/10/10 05:04:29;;;;;;;20.20;16.10;;;;;;;5.61;73.65;101162.11;108598;1280;23677;-82
2022/10/10 05:06:58;;;;;;;24.50;17.50;;;;;;;5.62;73.65;101161.42;107988;1286;21936;-81
2022/10/10 05:09:27;;;;;;;20.10;17.30;;;;;;;5.63;73.57;101162.98;108189;1286;21933;-81
2022/10/10 05:11:56;;;;;;;19.20;17.20;;;;;;;5.62;73.68;101162.63;108230;1275;23589;-81
2022/10/10 05:14:25;;;;;;;20.60;16.90;;;;;;;5.61;73.72;101160.55;108209;1283;22422;-82
2022/10/10 05:16:54;;;;;;;25.30;17.00;;;;;;;5.60;73.72;101161.08;108179;1283;21932;-83
2022/10/10 05:19:23;;;;;;;21.50;16.70;;;;;;;5.61;73.79;101160.91;107861;1288;23116;-81
2022/10/10 05:21:52;;;;;;;20.30;16.00;;;;;;;5.59;73.72;101161.43;107387;1289;23797;-82
2022/10/10 05:24:22;;;;;;;25.20;17.90;;;;;;;5.57;73.73;101158.68;107776;1286;23109;-82
2022/10/10 05:26:51;;;;;;;22.80;18.30;;;;;;;5.56;73.80;101157.80;107887;1289;23695;-80
2022/10/10 05:29:19;;;;;;;27.10;18.70;;;;;;;5.52;73.82;101157.83;107459;1289;22410;-82
2022/10/10 05:32:00;;;;;;;23.90;17.80;;;;;;;5.48;73.76;101154.91;107696;1289;21939;-82
2022/10/10 05:34:40;;;;;;;23.40;17.40;;;;;;;5.44;73.84;101151.48;107297;1294;22834;-81
2022/10/10 05:37:09;;;;;;;28.40;18.40;;;;;;;5.43;73.97;101146.30;106988;1295;21971;-83
2022/10/10 05:39:46;;;;;;;23.30;18.40;;;;;;;5.43;74.04;101141.30;107308;1292;21970;-81
2022/10/10 05:42:22;;;;;;;31.00;22.90;;;;;;;5.44;74.16;101141.46;107377;1295;22011;-81
2022/10/10 05:44:52;;;;;;;35.80;27.50;;;;;;;5.47;74.17;101138.17;107487;1275;23592;-82
2022/10/10 05:47:22;;;;;;;32.60;23.40;;;;;;;5.50;74.21;101134.18;107530;1292;21973;-82
2022/10/10 05:49:55;;;;;;;27.20;24.10;;;;;;;5.52;74.26;101137.30;107449;1292;22008;-84
2022/10/10 05:52:34;;;;;;;33.90;26.50;;;;;;;5.56;74.42;101136.23;107673;1289;22401;-83
2022/10/10 05:55:06;;;;;;;28.00;19.80;;;;;;;5.59;74.41;101133.10;107798;1286;22164;-83
2022/10/10 05:57:46;;;;;;;22.80;18.40;;;;;;;5.62;74.39;101131.88;108160;1284;23594;-82
2022/10/10 06:00:20;;;;;;;19.90;17.30;;;;;;;5.69;74.55;101133.23;108218;1286;21967;-82
2022/10/10 06:02:49;;;;;;;18.80;16.50;;;;;;;5.75;74.54;101127.51;108092;1280;22104;-81
2022/10/10 06:05:21;;;;;;;19.00;16.10;;;;;;;5.81;74.60;101126.95;107874;1283;21946;-81
2022/10/10 06:07:51;;;;;;;21.30;15.10;;;;;;;5.88;74.60;101124.49;108377;1281;21992;-82
2022/10/10 06:10:40;;;;;;;22.70;17.90;;;;;;;5.95;74.62;101121.71;108088;1283;22020;-81
2022/10/10 06:13:15;;;;;;;21.10;16.90;;;;;;;6.03;74.76;101119.77;108030;1283;22225;-81
2022/10/10 06:15:51;;;;;;;25.50;21.00;;;;;;;6.13;74.71;101122.64;108219;1283;21971;-81
2022/10/10 06:18:20;;;;;;;24.30;18.40;;;;;;;6.22;74.64;101127.75;108265;1284;22934;-81
2022/10/10 06:20:49;;;;;;;19.70;17.60;;;;;;;6.30;74.49;101124.23;108056;1283;23808;-82
2022/10/10 06:23:18;;;;;;;29.20;23.60;;;;;;;6.38;74.43;101126.77;108052;1283;23056;-82
2022/10/10 06:25:51;;;;;;;28.70;22.00;;;;;;;6.44;74.46;101125.16;108393;1283;21946;-82
2022/10/10 06:28:21;;;;;;;25.10;19.40;;;;;;;6.54;74.53;101119.70;107960;1283;21945;-81
2022/10/10 06:30:50;;;;;;;24.90;16.20;;;;;;;6.65;74.38;101120.83;108240;1283;21967;-81
2022/10/10 06:33:19;;;;;;;23.80;16.20;;;;;;;6.76;74.40;101119.34;108219;1283;22002;-81
2022/10/10 06:35:48;;;;;;;24.30;16.70;;;;;;;6.87;74.37;101118.53;108052;1284;23062;-81
2022/10/10 06:38:18;;;;;;;28.30;16.80;;;;;;;6.99;74.27;101117.55;108015;1284;22031;-81
2022/10/10 06:40:50;;;;;;;;;;;;;;;7.11;74.22;101114.13;108450;1277;21914;-81
2022/10/10 06:43:18;;;;;;;24.80;16.30;;;;;;;7.16;74.33;101110.77;108642;1275;22373;-82
2022/10/10 06:45:49;;;;;;;19.30;15.40;;;;;;;7.28;74.24;101104.41;108468;1277;23040;-81
2022/10/10 06:48:18;;;;;;;20.50;15.80;;;;;;;7.42;74.02;101103.89;108614;1278;21978;-79
2022/10/10 06:50:57;;;;;;;16.70;12.70;;;;;;;7.57;73.88;101100.57;108460;1278;22208;-81
2022/10/10 06:53:31;;;;;;;19.90;12.50;;;;;;;7.75;73.87;101101.02;108600;1277;22825;-83
2022/10/10 06:56:04;;;;;;;14.50;11.20;;;;;;;7.90;73.35;101095.44;108701;1277;22209;-81
2022/10/10 06:58:34;;;;;;;13.10;10.30;;;;;;;8.09;73.31;101097.92;108532;1278;21935;-80
2022/10/10 07:01:04;;;;;;;13.00;10.30;;;;;;;8.30;73.10;101097.05;108489;1278;21946;-82
2022/10/10 07:03:32;;;;;;;16.20;10.50;;;;;;;8.55;72.99;101096.31;108561;1278;23857;-83
2022/10/10 07:06:05;;;;;;;16.70;9.50;;;;;;;8.83;72.91;101093.92;108356;1278;21926;-83
2022/10/10 07:09:12;;;;;;;13.70;10.10;;;;;;;9.16;72.74;101096.41;108664;1278;21977;-82
2022/10/10 07:11:57;;;;;;;11.30;8.70;;;;;;;9.68;73.12;101091.67;108233;1283;21935;-82
2022/10/10 07:14:26;;;;;;;12.00;9.20;;;;;;;10.21;72.24;101091.84;108283;1283;21955;-82
2022/10/10 07:16:55;;;;;;;17.50;9.70;;;;;;;10.74;72.15;101093.65;108010;1283;21942;-84
2022/10/10 07:19:24;;;;;;;11.40;8.60;;;;;;;11.21;70.50;101086.60;108247;1283;21942;-82
2022/10/10 07:21:54;;;;;;;13.00;8.50;;;;;;;11.57;68.66;101089.02;108040;1284;21939;-86
2022/10/10 07:24:31;;;;;;;11.70;8.20;;;;;;;11.91;67.04;101085.40;108255;1283;23706;-83
2022/10/10 07:27:00;;;;;;;8.70;6.70;;;;;;;12.22;65.35;101088.92;108051;1282;22077;-84
2022/10/10 07:29:36;;;;;;;10.50;7.20;;;;;;;12.46;63.20;101085.88;108283;1281;21940;-84
2022/10/10 07:32:05;;;;;;;10.00;7.40;;;;;;;12.68;62.28;101081.48;108371;1278;21972;-83
2022/10/10 07:34:37;;;;;;;11.10;8.30;;;;;;;12.86;61.35;101081.52;108466;1277;22036;-85
2022/10/10 07:37:06;;;;;;;8.80;6.90;;;;;;;13.01;59.23;101082.89;108468;1277;22995;-83
2022/10/10 07:39:35;;;;;;;11.60;6.90;;;;;;;13.13;58.89;101079.16;108224;1284;23186;-84
2022/10/10 07:42:04;;;;;;;9.60;6.30;;;;;;;13.28;58.43;101077.56;108343;1283;21951;-84
2022/10/10 07:44:33;;;;;;;7.60;5.80;;;;;;;13.40;56.80;101079.05;108219;1286;23066;-84
2022/10/10 07:47:02;;;;;;;10.70;5.60;;;;;;;13.57;56.88;101077.16;108320;1283;21939;-88
2022/10/10 07:49:33;;;;;;;6.10;5.50;;;;;;;13.80;56.20;101073.66;108448;1283;21955;-84
2022/10/10 07:52:02;;;;;;;10.40;5.80;;;;;;;14.00;55.98;101072.67;108055;1275;23631;-84
2022/10/10 07:54:32;;;;;;;8.60;5.80;;;;;;;14.29;55.79;101075.86;107999;1280;22971;-84
2022/10/10 07:57:01;;;;;;;10.90;5.30;;;;;;;14.59;55.21;101073.91;108310;1281;21936;-84
2022/10/10 07:59:29;;;;;;;6.00;5.00;;;;;;;14.75;53.97;101069.38;108019;1286;21967;-85
2022/10/10 08:01:58;;;;;;;7.40;5.30;;;;;;;14.88;53.44;101066.88;108103;1287;21976;-84
2022/10/10 08:04:27;;;;;;;10.10;6.70;;;;;;;14.95;52.04;101067.10;108054;1286;21966;-84
2022/10/10 08:06:56;;;;;;;10.20;5.90;;;;;;;14.95;52.02;101065.19;108231;1286;22481;-83
2022/10/10 08:09:25;;;;;;;7.90;5.40;;;;;;;15.04;51.59;101066.19;108235;1286;21945;-84
2022/10/10 08:11:54;;;;;;;8.60;6.10;;;;;;;15.00;50.85;101065.11;108303;1286;21938;-84
2022/10/10 08:14:23;;;;;;;9.40;6.30;;;;;;;14.96;50.63;101066.89;108233;1286;23618;-83
2022/10/10 08:16:56;;;;;;;7.70;5.40;;;;;;;14.99;50.16;101064.84;107714;1287;22393;-84
2022/10/10 08:19:28;;;;;;;13.90;5.90;;;;;;;14.97;50.23;101065.79;107744;1289;22427;-85
2022/10/10 08:22:06;;;;;;;9.70;6.30;;;;;;;15.00;50.62;101060.05;107795;1290;23734;-84
2022/10/10 08:24:38;;;;;;;9.90;6.10;;;;;;;15.04;50.26;101060.54;107871;1291;22729;-85
2022/10/10 08:27:13;;;;;;;10.20;5.50;;;;;;;15.01;49.76;101060.86;107828;1289;21947;-84
2022/10/10 08:29:46;;;;;;;6.30;5.70;;;;;;;15.03;50.18;101058.67;107849;1289;21963;-84
2022/10/10 08:32:22;;;;;;;8.70;5.60;;;;;;;15.12;49.96;101057.23;107531;1281;21950;-81
2022/10/10 08:40:03;;;;;;;9.00;5.10;;;;;;;14.83;49.74;101047.29;108087;1285;22711;-88
2022/10/10 08:42:44;;;;;;;10.20;5.30;;;;;;;14.71;49.70;101045.58;108096;1292;21960;-83
2022/10/10 08:45:25;;;;;;;8.30;5.10;;;;;;;14.73;50.14;101042.33;107644;1291;22044;-85
2022/10/10 08:48:06;;;;;;;6.70;4.90;;;;;;;14.83;50.42;101038.73;107774;1292;21979;-84
2022/10/10 08:50:54;;;;;;;8.80;6.90;;;;;;;14.92;50.27;101037.09;108103;1287;22413;-85
2022/10/10 08:53:43;;;;;;;11.00;6.50;;;;;;;14.96;50.16;101033.24;108333;1286;23652;-85
2022/10/10 08:56:19;;;;;;;9.10;5.90;;;;;;;14.88;49.91;101028.86;108305;1281;22353;-83
2022/10/10 08:58:56;;;;;;;8.80;6.10;;;;;;;14.78;49.85;101027.38;107950;1280;22867;-83
2022/10/10 09:01:37;;;;;;;6.90;5.50;;;;;;;14.70;50.10;101032.10;108375;1283;22001;-86
2022/10/10 09:04:29;;;;;;;9.00;5.40;;;;;;;14.59;50.05;101030.48;108358;1278;23113;-80
2022/10/10 09:07:44;;;;;;;10.50;6.10;;;;;;;14.54;50.39;101029.79;108441;1285;21958;-82
2022/10/10 09:11:07;;;;;;;10.70;6.10;;;;;;;14.61;50.86;101023.06;108387;1278;23027;-81
2022/10/10 09:13:59;;;;;;;10.00;5.60;;;;;;;14.60;50.72;101018.88;108510;1283;21945;-85
2022/10/10 09:17:00;;;;;;;7.80;5.30;;;;;;;14.54;50.68;101017.74;108235;1287;21959;-84
2022/10/10 09:19:49;;;;;;;8.40;5.80;;;;;;;14.52;51.24;101012.38;108760;1283;21961;-85
2022/10/10 09:22:24;;;;;;;9.10;6.00;;;;;;;14.64;51.43;101011.34;108866;1284;21978;-86
2022/10/10 09:25:02;;;;;;;6.90;5.60;;;;;;;14.76;51.35;101015.73;108579;1283;22241;-86
2022/10/10 09:27:39;;;;;;;7.30;5.50;;;;;;;14.84;50.93;101013.80;108629;1287;23113;-87
2022/10/10 09:30:19;;;;;;;11.30;5.50;;;;;;;14.84;50.73;101011.86;109061;1283;21977;-86
2022/10/10 09:33:06;;;;;;;6.80;5.30;;;;;;;14.93;51.08;101009.38;109093;1280;21960;-88
2022/10/10 09:35:38;;;;;;;8.40;5.30;;;;;;;15.08;51.05;101002.04;109256;1280;22034;-87
2022/10/10 09:38:09;;;;;;;9.00;5.00;;;;;;;15.24;50.97;100999.36;108769;1281;21930;-82
2022/10/10 09:40:45;;;;;;;;;;;;;;;15.36;50.51;100996.88;108827;1277;23047;-82
2022/10/10 09:43:20;;;;;;;13.30;5.50;;;;;;;15.42;50.73;100994.28;108874;1280;21931;-82
2022/10/10 09:45:53;;;;;;;8.70;5.90;;;;;;;15.64;50.56;100990.27;108318;1278;22148;-80
2022/10/10 09:48:30;;;;;;;7.60;5.10;;;;;;;15.87;49.98;100987.58;108486;1280;22806;-80
2022/10/10 09:51:03;;;;;;;7.20;5.50;;;;;;;16.04;49.51;100986.55;108437;1280;21951;-79
2022/10/10 09:53:32;;;;;;;11.60;5.40;;;;;;;16.18;49.48;100981.63;108331;1283;24057;-80
2022/10/10 09:56:03;;;;;;;6.50;5.30;;;;;;;16.32;48.97;100979.30;108751;1280;21987;-87
2022/10/10 09:58:45;;;;;;;8.60;5.00;;;;;;;16.45;48.66;100978.65;108829;1280;23275;-84
2022/10/10 10:01:20;;;;;;;6.60;5.00;;;;;;;16.57;48.50;100982.41;108411;1286;22306;-84
2022/10/10 10:04:16;;;;;;;8.90;4.50;;;;;;;16.70;48.16;100982.42;107902;1289;21958;-84
2022/10/10 10:07:28;;;;;;;8.20;4.90;;;;;;;16.79;47.83;100976.86;108036;1289;21958;-85
2022/10/10 10:10:26;;;;;;;9.60;5.10;;;;;;;16.93;47.88;100970.15;107503;1294;21954;-86
2022/10/10 10:12:55;;;;;;;11.50;5.30;;;;;;;17.10;47.67;100964.81;107497;1295;21936;-86
2022/10/10 10:15:30;;;;;;;7.30;4.60;;;;;;;17.24;47.18;100969.14;107327;1295;23889;-86
2022/10/10 10:18:12;;;;;;;11.00;5.70;;;;;;;17.30;46.71;100962.83;107197;1297;21957;-84
2022/10/10 10:20:45;;;;;;;5.70;5.10;;;;;;;17.39;46.68;100958.83;107383;1292;23169;-85
2022/10/10 10:23:59;;;;;;;7.00;4.70;;;;;;;17.50;46.45;100953.08;108111;1289;21958;-86
2022/10/10 10:26:39;;;;;;;11.80;5.40;;;;;;;17.60;46.34;100952.17;107784;1295;22104;-85
2022/10/10 10:29:27;;;;;;;9.80;4.70;;;;;;;17.64;46.03;100947.56;107878;1295;21607;-86
2022/10/10 10:32:28;;;;;;;10.70;4.50;;;;;;;17.64;46.14;100943.48;108103;1295;21957;-85
2022/10/10 10:35:49;;;;;;;7.60;5.10;;;;;;;17.70;46.14;100938.73;107625;1295;22558;-86
2022/10/10 10:38:28;;;;;;;11.20;5.70;;;;;;;17.88;46.30;100932.05;107354;1297;22048;-85
2022/10/10 10:41:08;;;;;;;10.90;6.10;;;;;;;18.07;45.24;100921.78;107378;1298;22282;-85
2022/10/10 10:43:55;;;;;;;10.00;5.10;;;;;;;18.15;45.01;100920.79;107690;1298;21989;-86
2022/10/10 10:46:30;;;;;;;7.10;5.00;;;;;;;18.26;44.70;100914.00;107657;1293;22487;-84
2022/10/10 10:49:35;;;;;;;8.70;4.50;;;;;;;18.30;44.73;100908.59;108253;1292;22055;-86
2022/10/10 10:52:37;;;;;;;9.00;5.00;;;;;;;18.29;44.53;100904.41;108255;1292;22281;-87
2022/10/10 10:55:32;;;;;;;9.30;4.90;;;;;;;18.22;44.65;100898.20;108217;1292;21962;-87
2022/10/10 10:58:23;;;;;;;8.50;5.50;;;;;;;18.24;44.90;100891.73;108630;1286;24375;-85
2022/10/10 11:01:39;;;;;;;7.90;4.70;;;;;;;18.25;44.69;100885.13;108590;1286;21978;-86
2022/10/10 11:04:32;;;;;;;5.80;5.00;;;;;;;18.22;44.76;100880.40;108656;1286;22433;-86
2022/10/10 11:07:28;;;;;;;8.20;5.00;;;;;;;18.10;44.68;100873.86;108735;1286;21969;-87
2022/10/10 11:10:35;;;;;;;6.90;5.20;;;;;;;17.96;44.69;100872.98;108734;1286;22042;-86
2022/10/10 11:13:23;;;;;;;7.20;4.60;;;;;;;17.75;45.24;100872.60;108706;1286;22013;-86
2022/10/10 11:16:20;;;;;;;8.90;5.40;;;;;;;17.59;45.63;100874.47;109050;1283;21952;-88
2022/10/10 11:19:09;;;;;;;8.00;4.80;;;;;;;17.43;46.13;100867.46;109271;1280;21954;-88
2022/10/10 11:21:47;;;;;;;8.00;5.40;;;;;;;17.38;46.24;100867.59;109093;1279;23002;-86
2022/10/10 11:24:42;;;;;;;9.10;5.30;;;;;;;17.35;46.23;100868.27;109192;1280;21912;-87
2022/10/10 11:27:23;;;;;;;7.10;5.10;;;;;;;17.33;46.43;100862.58;109037;1280;21933;-85
2022/10/10 11:29:55;;;;;;;6.90;4.90;;;;;;;17.33;46.40;100862.58;109140;1277;21941;-87
2022/10/10 11:32:39;;;;;;;;;;;;;;;17.23;46.44;100853.46;109280;1280;21960;-87
2022/10/10 11:35:35;;;;;;;6.00;4.40;;;;;;;17.09;46.88;100853.37;109096;1280;21940;-88
2022/10/10 11:38:29;;;;;;;10.30;5.30;;;;;;;17.10;47.13;100843.84;109240;1280;21925;-88
2022/10/10 11:41:25;;;;;;;7.90;4.70;;;;;;;17.19;47.34;100841.06;109412;1282;22042;-87
2022/10/10 11:44:16;;;;;;;6.60;5.20;;;;;;;17.29;47.38;100835.18;109560;1282;21939;-88
2022/10/10 11:47:12;;;;;;;8.70;5.00;;;;;;;17.39;47.29;100834.10;109196;1282;22299;-87
2022/10/10 11:50:09;;;;;;;11.50;5.50;;;;;;;17.43;46.92;100823.11;109049;1282;23070;-85
2022/10/10 11:52:54;;;;;;;8.30;5.60;;;;;;;17.45;46.93;100821.05;109054;1279;22141;-86
2022/10/10 11:55:56;;;;;;;8.40;5.20;;;;;;;17.52;47.07;100814.33;109096;1277;21941;-87
2022/10/10 11:58:49;;;;;;;10.10;5.70;;;;;;;17.57;47.05;100808.38;109067;1283;21946;-86
2022/10/10 12:01:29;;;;;;;9.80;5.60;;;;;;;17.63;47.15;100809.78;109121;1281;22022;-88
2022/10/10 12:03:57;;;;;;;9.50;7.60;;;;;;;17.68;47.02;100806.00;109054;1279;23097;-84
2022/10/10 12:07:01;;;;;;;7.80;5.00;;;;;;;17.71;47.10;100798.39;108639;1282;21957;-88